sensor_id;sensor_type;location;lat;lon;timestamp;P1;durP1;ratioP1;P2;durP2;ratioP2
71253;SDS011;59019;47.638;18.966;2023-02-28T00:01:24;32.03;;;12.02;;
71253;SDS011;59019;47.638;18.966;2023-02-28T00:03:50;29.93;;;12.47;;
71253;SDS011;59019;47.638;18.966;2023-02-28T00:06:15;25.95;;;11.75;;
71253;SDS011;59019;47.638;18.966;2023-02-28T00:08:41;28.83;;;12.57;;
71253;SDS011;59019;47.638;18.966;2023-02-28T00:11:08;27.80;;;13.02;;
71253;SDS011;59019;47.638;18.966;2023-02-28T00:13:38;33.20;;;13.73;;
71253;SDS011;59019;47.638;18.966;2023-02-28T00:16:06;31.17;;;13.63;;
71253;SDS011;59019;47.638;18.966;2023-02-28T00:18:34;29.63;;;12.48;;
71253;SDS011;59019;47.638;18.966;2023-02-28T00:21:00;27.80;;;12.50;;
71253;SDS011;59019;47.638;18.966;2023-02-28T00:23:26;31.70;;;13.63;;
71253;SDS011;59019;47.638;18.966;2023-02-28T00:25:52;29.38;;;12.50;;
71253;SDS011;59019;47.638;18.966;2023-02-28T00:28:18;25.48;;;11.40;;
71253;SDS011;59019;47.638;18.966;2023-02-28T00:30:45;24.10;;;10.10;;
71253;SDS011;59019;47.638;18.966;2023-02-28T00:33:10;20.53;;;8.23;;
71253;SDS011;59019;47.638;18.966;2023-02-28T00:35:36;18.73;;;8.55;;
71253;SDS011;59019;47.638;18.966;2023-02-28T00:38:02;19.17;;;8.17;;
71253;SDS011;59019;47.638;18.966;2023-02-28T00:40:28;20.95;;;7.32;;
71253;SDS011;59019;47.638;18.966;2023-02-28T00:42:54;15.77;;;6.57;;
71253;SDS011;59019;47.638;18.966;2023-02-28T00:45:20;16.80;;;6.57;;
71253;SDS011;59019;47.638;18.966;2023-02-28T00:47:45;12.97;;;5.37;;
71253;SDS011;59019;47.638;18.966;2023-02-28T00:50:14;12.45;;;5.38;;
71253;SDS011;59019;47.638;18.966;2023-02-28T00:52:44;15.90;;;5.70;;
71253;SDS011;59019;47.638;18.966;2023-02-28T00:55:10;11.17;;;4.90;;
71253;SDS011;59019;47.638;18.966;2023-02-28T00:57:35;11.27;;;4.60;;
71253;SDS011;59019;47.638;18.966;2023-02-28T01:00:01;12.35;;;4.97;;
71253;SDS011;59019;47.638;18.966;2023-02-28T01:02:28;10.60;;;4.00;;
71253;SDS011;59019;47.638;18.966;2023-02-28T01:04:54;12.45;;;4.45;;
71253;SDS011;59019;47.638;18.966;2023-02-28T01:07:19;12.07;;;4.80;;
71253;SDS011;59019;47.638;18.966;2023-02-28T01:09:45;13.00;;;4.83;;
71253;SDS011;59019;47.638;18.966;2023-02-28T01:12:10;10.48;;;4.95;;
71253;SDS011;59019;47.638;18.966;2023-02-28T01:14:36;15.05;;;6.88;;
71253;SDS011;59019;47.638;18.966;2023-02-28T01:17:02;26.05;;;11.10;;
71253;SDS011;59019;47.638;18.966;2023-02-28T01:19:28;23.63;;;9.50;;
71253;SDS011;59019;47.638;18.966;2023-02-28T01:21:53;29.47;;;11.40;;
71253;SDS011;59019;47.638;18.966;2023-02-28T01:24:19;25.55;;;11.45;;
71253;SDS011;59019;47.638;18.966;2023-02-28T01:26:44;25.87;;;11.17;;
71253;SDS011;59019;47.638;18.966;2023-02-28T01:29:10;29.97;;;11.53;;
71253;SDS011;59019;47.638;18.966;2023-02-28T01:31:35;28.17;;;11.30;;
71253;SDS011;59019;47.638;18.966;2023-02-28T01:34:01;28.37;;;11.90;;
71253;SDS011;59019;47.638;18.966;2023-02-28T01:36:27;28.10;;;12.00;;
71253;SDS011;59019;47.638;18.966;2023-02-28T01:38:53;29.10;;;11.83;;
71253;SDS011;59019;47.638;18.966;2023-02-28T01:41:21;27.38;;;11.02;;
71253;SDS011;59019;47.638;18.966;2023-02-28T01:43:56;31.37;;;10.90;;
71253;SDS011;59019;47.638;18.966;2023-02-28T01:46:31;26.65;;;11.00;;
71253;SDS011;59019;47.638;18.966;2023-02-28T01:49:13;29.55;;;10.88;;
71253;SDS011;59019;47.638;18.966;2023-02-28T01:51:51;27.23;;;10.20;;
71253;SDS011;59019;47.638;18.966;2023-02-28T01:54:26;21.75;;;9.70;;
71253;SDS011;59019;47.638;18.966;2023-02-28T01:56:56;22.30;;;9.20;;
71253;SDS011;59019;47.638;18.966;2023-02-28T01:59:38;22.42;;;8.98;;
71253;SDS011;59019;47.638;18.966;2023-02-28T02:02:11;23.52;;;9.13;;
71253;SDS011;59019;47.638;18.966;2023-02-28T02:04:42;19.25;;;8.23;;
71253;SDS011;59019;47.638;18.966;2023-02-28T02:07:41;19.73;;;7.82;;
71253;SDS011;59019;47.638;18.966;2023-02-28T02:10:12;20.23;;;8.13;;
71253;SDS011;59019;47.638;18.966;2023-02-28T02:18:02;18.75;;;7.10;;
71253;SDS011;59019;47.638;18.966;2023-02-28T02:20:42;16.85;;;7.35;;
71253;SDS011;59019;47.638;18.966;2023-02-28T02:39:29;17.35;;;8.15;;
71253;SDS011;59019;47.638;18.966;2023-02-28T02:42:01;16.98;;;7.72;;
71253;SDS011;59019;47.638;18.966;2023-02-28T02:44:39;16.38;;;7.13;;
71253;SDS011;59019;47.638;18.966;2023-02-28T02:47:12;14.65;;;6.63;;
71253;SDS011;59019;47.638;18.966;2023-02-28T02:49:44;17.53;;;7.00;;
71253;SDS011;59019;47.638;18.966;2023-02-28T02:52:14;13.27;;;6.15;;
71253;SDS011;59019;47.638;18.966;2023-02-28T02:54:43;17.02;;;7.60;;
71253;SDS011;59019;47.638;18.966;2023-02-28T02:57:12;16.98;;;7.38;;
71253;SDS011;59019;47.638;18.966;2023-02-28T02:59:43;14.35;;;5.95;;
71253;SDS011;59019;47.638;18.966;2023-02-28T03:02:10;14.33;;;5.90;;
71253;SDS011;59019;47.638;18.966;2023-02-28T03:04:42;11.63;;;4.97;;
71253;SDS011;59019;47.638;18.966;2023-02-28T03:07:11;10.32;;;4.63;;
71253;SDS011;59019;47.638;18.966;2023-02-28T03:09:37;11.23;;;4.30;;
71253;SDS011;59019;47.638;18.966;2023-02-28T03:12:03;12.43;;;4.47;;
71253;SDS011;59019;47.638;18.966;2023-02-28T03:17:30;8.82;;;3.47;;
71253;SDS011;59019;47.638;18.966;2023-02-28T03:33:57;7.63;;;2.83;;
71253;SDS011;59019;47.638;18.966;2023-02-28T03:36:30;7.68;;;3.20;;
71253;SDS011;59019;47.638;18.966;2023-02-28T03:39:05;8.65;;;3.50;;
71253;SDS011;59019;47.638;18.966;2023-02-28T03:41:38;9.45;;;3.05;;
71253;SDS011;59019;47.638;18.966;2023-02-28T03:44:24;7.35;;;3.20;;
71253;SDS011;59019;47.638;18.966;2023-02-28T03:47:12;9.20;;;3.53;;
71253;SDS011;59019;47.638;18.966;2023-02-28T03:50:01;9.77;;;3.08;;
71253;SDS011;59019;47.638;18.966;2023-02-28T03:53:06;7.20;;;3.03;;
71253;SDS011;59019;47.638;18.966;2023-02-28T03:55:42;6.47;;;2.80;;
71253;SDS011;59019;47.638;18.966;2023-02-28T03:58:31;6.97;;;2.80;;
71253;SDS011;59019;47.638;18.966;2023-02-28T04:01:05;8.70;;;3.40;;
71253;SDS011;59019;47.638;18.966;2023-02-28T04:03:34;10.23;;;3.42;;
71253;SDS011;59019;47.638;18.966;2023-02-28T04:06:02;6.75;;;3.17;;
71253;SDS011;59019;47.638;18.966;2023-02-28T04:08:29;7.32;;;3.20;;
71253;SDS011;59019;47.638;18.966;2023-02-28T04:11:05;8.13;;;2.90;;
71253;SDS011;59019;47.638;18.966;2023-02-28T04:13:38;9.85;;;2.88;;
71253;SDS011;59019;47.638;18.966;2023-02-28T04:16:06;7.97;;;3.27;;
71253;SDS011;59019;47.638;18.966;2023-02-28T04:18:37;6.40;;;3.33;;
71253;SDS011;59019;47.638;18.966;2023-02-28T04:21:03;7.28;;;3.00;;
71253;SDS011;59019;47.638;18.966;2023-02-28T04:23:30;8.13;;;3.08;;
71253;SDS011;59019;47.638;18.966;2023-02-28T04:25:56;6.53;;;2.43;;
71253;SDS011;59019;47.638;18.966;2023-02-28T04:28:21;7.68;;;3.22;;
71253;SDS011;59019;47.638;18.966;2023-02-28T04:30:47;7.70;;;2.60;;
71253;SDS011;59019;47.638;18.966;2023-02-28T04:33:12;8.50;;;3.38;;
71253;SDS011;59019;47.638;18.966;2023-02-28T04:35:38;9.52;;;3.58;;
71253;SDS011;59019;47.638;18.966;2023-02-28T04:38:03;8.57;;;3.10;;
71253;SDS011;59019;47.638;18.966;2023-02-28T04:40:29;7.73;;;3.00;;
71253;SDS011;59019;47.638;18.966;2023-02-28T04:42:54;7.88;;;2.78;;
71253;SDS011;59019;47.638;18.966;2023-02-28T04:45:20;7.90;;;3.13;;
71253;SDS011;59019;47.638;18.966;2023-02-28T04:47:46;9.37;;;3.37;;
71253;SDS011;59019;47.638;18.966;2023-02-28T04:50:11;8.17;;;3.37;;
71253;SDS011;59019;47.638;18.966;2023-02-28T04:52:37;8.18;;;3.17;;
71253;SDS011;59019;47.638;18.966;2023-02-28T04:55:02;8.00;;;3.43;;
71253;SDS011;59019;47.638;18.966;2023-02-28T04:57:28;9.53;;;3.47;;
71253;SDS011;59019;47.638;18.966;2023-02-28T04:59:55;8.00;;;3.22;;
71253;SDS011;59019;47.638;18.966;2023-02-28T05:02:20;9.17;;;3.57;;
71253;SDS011;59019;47.638;18.966;2023-02-28T05:04:46;8.77;;;3.53;;
71253;SDS011;59019;47.638;18.966;2023-02-28T05:07:11;8.50;;;3.70;;
71253;SDS011;59019;47.638;18.966;2023-02-28T05:09:37;10.63;;;3.80;;
71253;SDS011;59019;47.638;18.966;2023-02-28T05:12:02;8.73;;;3.60;;
71253;SDS011;59019;47.638;18.966;2023-02-28T05:14:28;10.23;;;3.87;;
71253;SDS011;59019;47.638;18.966;2023-02-28T05:16:53;10.53;;;3.37;;
71253;SDS011;59019;47.638;18.966;2023-02-28T05:19:19;11.15;;;4.10;;
71253;SDS011;59019;47.638;18.966;2023-02-28T05:21:50;8.45;;;3.55;;
71253;SDS011;59019;47.638;18.966;2023-02-28T05:24:17;8.80;;;3.40;;
71253;SDS011;59019;47.638;18.966;2023-02-28T05:26:49;7.77;;;3.27;;
71253;SDS011;59019;47.638;18.966;2023-02-28T05:29:16;9.35;;;3.55;;
71253;SDS011;59019;47.638;18.966;2023-02-28T05:31:42;8.80;;;3.20;;
71253;SDS011;59019;47.638;18.966;2023-02-28T05:34:07;9.20;;;3.78;;
71253;SDS011;59019;47.638;18.966;2023-02-28T05:36:36;9.73;;;3.70;;
71253;SDS011;59019;47.638;18.966;2023-02-28T05:39:02;11.03;;;3.40;;
71253;SDS011;59019;47.638;18.966;2023-02-28T05:41:28;8.45;;;3.28;;
71253;SDS011;59019;47.638;18.966;2023-02-28T05:43:53;10.20;;;3.30;;
71253;SDS011;59019;47.638;18.966;2023-02-28T05:46:19;8.77;;;3.35;;
71253;SDS011;59019;47.638;18.966;2023-02-28T05:48:46;11.17;;;4.03;;
71253;SDS011;59019;47.638;18.966;2023-02-28T05:51:12;10.73;;;3.90;;
71253;SDS011;59019;47.638;18.966;2023-02-28T05:53:38;12.70;;;4.57;;
71253;SDS011;59019;47.638;18.966;2023-02-28T05:56:03;14.97;;;5.07;;
71253;SDS011;59019;47.638;18.966;2023-02-28T05:58:31;17.17;;;6.30;;
71253;SDS011;59019;47.638;18.966;2023-02-28T06:00:57;18.67;;;6.97;;
71253;SDS011;59019;47.638;18.966;2023-02-28T06:03:23;19.48;;;7.10;;
71253;SDS011;59019;47.638;18.966;2023-02-28T06:05:49;19.20;;;6.73;;
71253;SDS011;59019;47.638;18.966;2023-02-28T06:08:15;20.13;;;8.27;;
71253;SDS011;59019;47.638;18.966;2023-02-28T06:10:41;15.50;;;7.30;;
71253;SDS011;59019;47.638;18.966;2023-02-28T06:13:06;16.50;;;6.88;;
71253;SDS011;59019;47.638;18.966;2023-02-28T06:15:32;16.90;;;7.35;;
71253;SDS011;59019;47.638;18.966;2023-02-28T06:17:58;18.08;;;7.72;;
71253;SDS011;59019;47.638;18.966;2023-02-28T06:20:24;15.00;;;7.10;;
71253;SDS011;59019;47.638;18.966;2023-02-28T06:22:54;15.68;;;7.38;;
71253;SDS011;59019;47.638;18.966;2023-02-28T06:25:26;16.20;;;7.85;;
71253;SDS011;59019;47.638;18.966;2023-02-28T06:27:52;18.42;;;7.55;;
71253;SDS011;59019;47.638;18.966;2023-02-28T06:30:18;17.03;;;7.30;;
71253;SDS011;59019;47.638;18.966;2023-02-28T06:32:51;15.88;;;7.22;;
71253;SDS011;59019;47.638;18.966;2023-02-28T06:35:17;26.80;;;9.30;;
71253;SDS011;59019;47.638;18.966;2023-02-28T06:37:43;26.13;;;8.82;;
71253;SDS011;59019;47.638;18.966;2023-02-28T06:40:10;21.00;;;7.70;;
71253;SDS011;59019;47.638;18.966;2023-02-28T06:42:38;19.98;;;7.78;;
71253;SDS011;59019;47.638;18.966;2023-02-28T06:45:03;20.33;;;7.13;;
71253;SDS011;59019;47.638;18.966;2023-02-28T06:47:34;20.63;;;7.20;;
71253;SDS011;59019;47.638;18.966;2023-02-28T06:50:01;17.60;;;7.10;;
71253;SDS011;59019;47.638;18.966;2023-02-28T06:52:27;15.48;;;5.82;;
71253;SDS011;59019;47.638;18.966;2023-02-28T06:54:52;12.17;;;5.40;;
71253;SDS011;59019;47.638;18.966;2023-02-28T06:57:25;11.93;;;4.50;;
71253;SDS011;59019;47.638;18.966;2023-02-28T06:59:55;10.23;;;4.28;;
71253;SDS011;59019;47.638;18.966;2023-02-28T07:02:21;10.90;;;3.73;;
71253;SDS011;59019;47.638;18.966;2023-02-28T07:04:46;8.57;;;3.57;;
71253;SDS011;59019;47.638;18.966;2023-02-28T07:07:13;7.17;;;3.10;;
71253;SDS011;59019;47.638;18.966;2023-02-28T07:09:38;12.38;;;3.88;;
71253;SDS011;59019;47.638;18.966;2023-02-28T07:12:04;10.07;;;4.40;;
71253;SDS011;59019;47.638;18.966;2023-02-28T07:14:30;11.10;;;4.75;;
71253;SDS011;59019;47.638;18.966;2023-02-28T07:16:55;9.27;;;4.40;;
71253;SDS011;59019;47.638;18.966;2023-02-28T07:19:21;10.68;;;3.88;;
71253;SDS011;59019;47.638;18.966;2023-02-28T07:21:46;11.10;;;5.03;;
71253;SDS011;59019;47.638;18.966;2023-02-28T07:24:12;12.07;;;4.67;;
71253;SDS011;59019;47.638;18.966;2023-02-28T07:26:40;12.10;;;4.57;;
71253;SDS011;59019;47.638;18.966;2023-02-28T07:29:06;12.30;;;4.77;;
71253;SDS011;59019;47.638;18.966;2023-02-28T07:31:31;11.18;;;4.63;;
71253;SDS011;59019;47.638;18.966;2023-02-28T07:33:57;10.95;;;4.57;;
71253;SDS011;59019;47.638;18.966;2023-02-28T07:36:23;8.02;;;3.65;;
71253;SDS011;59019;47.638;18.966;2023-02-28T07:38:49;9.27;;;3.80;;
71253;SDS011;59019;47.638;18.966;2023-02-28T07:41:18;7.50;;;3.40;;
71253;SDS011;59019;47.638;18.966;2023-02-28T07:43:46;9.10;;;3.50;;
71253;SDS011;59019;47.638;18.966;2023-02-28T07:46:13;8.73;;;3.00;;
71253;SDS011;59019;47.638;18.966;2023-02-28T07:48:41;8.38;;;3.03;;
71253;SDS011;59019;47.638;18.966;2023-02-28T07:51:07;7.60;;;3.13;;
71253;SDS011;59019;47.638;18.966;2023-02-28T07:53:32;7.95;;;2.92;;
71253;SDS011;59019;47.638;18.966;2023-02-28T07:55:59;8.43;;;3.60;;
71253;SDS011;59019;47.638;18.966;2023-02-28T07:58:26;8.95;;;3.10;;
71253;SDS011;59019;47.638;18.966;2023-02-28T08:00:52;9.68;;;2.90;;
71253;SDS011;59019;47.638;18.966;2023-02-28T08:03:18;7.27;;;3.00;;
71253;SDS011;59019;47.638;18.966;2023-02-28T08:05:45;13.65;;;3.15;;
71253;SDS011;59019;47.638;18.966;2023-02-28T08:08:11;7.45;;;2.70;;
71253;SDS011;59019;47.638;18.966;2023-02-28T08:10:37;8.97;;;3.10;;
71253;SDS011;59019;47.638;18.966;2023-02-28T08:13:02;7.63;;;2.95;;
71253;SDS011;59019;47.638;18.966;2023-02-28T08:15:28;10.27;;;4.80;;
71253;SDS011;59019;47.638;18.966;2023-02-28T08:17:54;9.07;;;4.00;;
71253;SDS011;59019;47.638;18.966;2023-02-28T08:20:21;7.37;;;3.20;;
71253;SDS011;59019;47.638;18.966;2023-02-28T08:22:48;7.65;;;3.38;;
71253;SDS011;59019;47.638;18.966;2023-02-28T08:25:13;6.78;;;2.88;;
71253;SDS011;59019;47.638;18.966;2023-02-28T08:27:39;7.07;;;3.03;;
71253;SDS011;59019;47.638;18.966;2023-02-28T08:30:05;8.75;;;2.80;;
71253;SDS011;59019;47.638;18.966;2023-02-28T08:32:32;7.27;;;3.10;;
71253;SDS011;59019;47.638;18.966;2023-02-28T08:34:58;7.43;;;2.75;;
71253;SDS011;59019;47.638;18.966;2023-02-28T08:37:24;8.02;;;2.63;;
71253;SDS011;59019;47.638;18.966;2023-02-28T08:39:50;7.67;;;2.87;;
71253;SDS011;59019;47.638;18.966;2023-02-28T08:42:15;7.22;;;3.00;;
71253;SDS011;59019;47.638;18.966;2023-02-28T08:44:41;8.43;;;3.10;;
71253;SDS011;59019;47.638;18.966;2023-02-28T08:47:07;7.77;;;2.90;;
71253;SDS011;59019;47.638;18.966;2023-02-28T08:49:32;7.55;;;3.08;;
71253;SDS011;59019;47.638;18.966;2023-02-28T08:51:58;17.63;;;7.63;;
71253;SDS011;59019;47.638;18.966;2023-02-28T08:54:24;9.10;;;3.60;;
71253;SDS011;59019;47.638;18.966;2023-02-28T08:56:49;9.88;;;4.18;;
71253;SDS011;59019;47.638;18.966;2023-02-28T08:59:16;10.40;;;4.55;;
71253;SDS011;59019;47.638;18.966;2023-02-28T09:01:42;6.88;;;3.05;;
71253;SDS011;59019;47.638;18.966;2023-02-28T09:04:08;8.43;;;3.53;;
71253;SDS011;59019;47.638;18.966;2023-02-28T09:06:36;9.38;;;4.07;;
71253;SDS011;59019;47.638;18.966;2023-02-28T09:09:02;7.65;;;3.50;;
71253;SDS011;59019;47.638;18.966;2023-02-28T09:11:30;10.88;;;4.30;;
71253;SDS011;59019;47.638;18.966;2023-02-28T09:13:57;8.75;;;4.03;;
71253;SDS011;59019;47.638;18.966;2023-02-28T09:16:24;7.73;;;3.70;;
71253;SDS011;59019;47.638;18.966;2023-02-28T09:18:49;9.05;;;4.00;;
71253;SDS011;59019;47.638;18.966;2023-02-28T09:21:15;8.10;;;3.83;;
71253;SDS011;59019;47.638;18.966;2023-02-28T09:23:43;8.95;;;3.90;;
71253;SDS011;59019;47.638;18.966;2023-02-28T09:26:17;7.63;;;3.78;;
71253;SDS011;59019;47.638;18.966;2023-02-28T09:28:50;7.32;;;3.38;;
71253;SDS011;59019;47.638;18.966;2023-02-28T09:31:17;8.73;;;3.50;;
71253;SDS011;59019;47.638;18.966;2023-02-28T09:33:47;7.97;;;3.60;;
71253;SDS011;59019;47.638;18.966;2023-02-28T09:36:17;8.57;;;3.40;;
71253;SDS011;59019;47.638;18.966;2023-02-28T09:38:42;8.83;;;3.40;;
71253;SDS011;59019;47.638;18.966;2023-02-28T09:41:26;8.35;;;3.53;;
71253;SDS011;59019;47.638;18.966;2023-02-28T09:43:57;8.37;;;3.20;;
71253;SDS011;59019;47.638;18.966;2023-02-28T09:46:28;9.75;;;3.63;;
71253;SDS011;59019;47.638;18.966;2023-02-28T09:48:57;8.07;;;3.40;;
71253;SDS011;59019;47.638;18.966;2023-02-28T09:53:59;7.30;;;3.00;;
71253;SDS011;59019;47.638;18.966;2023-02-28T09:56:28;8.03;;;3.23;;
71253;SDS011;59019;47.638;18.966;2023-02-28T09:59:10;7.68;;;3.60;;
71253;SDS011;59019;47.638;18.966;2023-02-28T10:10:14;9.87;;;3.60;;
71253;SDS011;59019;47.638;18.966;2023-02-28T10:12:44;9.60;;;3.88;;
71253;SDS011;59019;47.638;18.966;2023-02-28T10:15:15;8.50;;;3.50;;
71253;SDS011;59019;47.638;18.966;2023-02-28T10:17:43;10.10;;;3.83;;
71253;SDS011;59019;47.638;18.966;2023-02-28T10:20:13;9.63;;;3.42;;
71253;SDS011;59019;47.638;18.966;2023-02-28T10:25:23;7.45;;;3.28;;
71253;SDS011;59019;47.638;18.966;2023-02-28T10:27:57;8.25;;;3.65;;
71253;SDS011;59019;47.638;18.966;2023-02-28T10:30:55;7.53;;;3.33;;
71253;SDS011;59019;47.638;18.966;2023-02-28T10:33:23;7.45;;;3.47;;
71253;SDS011;59019;47.638;18.966;2023-02-28T10:35:52;7.43;;;3.43;;
71253;SDS011;59019;47.638;18.966;2023-02-28T10:38:20;9.20;;;3.40;;
71253;SDS011;59019;47.638;18.966;2023-02-28T10:40:50;8.25;;;3.53;;
71253;SDS011;59019;47.638;18.966;2023-02-28T10:46:25;7.53;;;3.10;;
71253;SDS011;59019;47.638;18.966;2023-02-28T10:48:40;7.82;;;3.38;;
71253;SDS011;59019;47.638;18.966;2023-02-28T10:51:11;6.80;;;3.03;;
71253;SDS011;59019;47.638;18.966;2023-02-28T10:53:47;7.60;;;3.28;;
71253;SDS011;59019;47.638;18.966;2023-02-28T10:56:16;7.47;;;3.35;;
71253;SDS011;59019;47.638;18.966;2023-02-28T11:01:38;7.68;;;3.20;;
71253;SDS011;59019;47.638;18.966;2023-02-28T11:09:54;5.80;;;2.60;;
71253;SDS011;59019;47.638;18.966;2023-02-28T11:12:26;6.70;;;2.72;;
71253;SDS011;59019;47.638;18.966;2023-02-28T11:15:14;7.22;;;2.90;;
71253;SDS011;59019;47.638;18.966;2023-02-28T11:17:55;5.53;;;2.17;;
71253;SDS011;59019;47.638;18.966;2023-02-28T11:20:25;5.93;;;2.65;;
71253;SDS011;59019;47.638;18.966;2023-02-28T11:22:53;7.03;;;2.70;;
71253;SDS011;59019;47.638;18.966;2023-02-28T11:27:59;6.75;;;2.42;;
71253;SDS011;59019;47.638;18.966;2023-02-28T11:32:59;6.05;;;2.20;;
71253;SDS011;59019;47.638;18.966;2023-02-28T11:35:33;6.13;;;2.42;;
71253;SDS011;59019;47.638;18.966;2023-02-28T11:38:04;6.85;;;2.38;;
71253;SDS011;59019;47.638;18.966;2023-02-28T11:43:52;6.73;;;2.40;;
71253;SDS011;59019;47.638;18.966;2023-02-28T11:59:47;6.57;;;2.67;;
71253;SDS011;59019;47.638;18.966;2023-02-28T12:02:26;6.65;;;2.83;;
71253;SDS011;59019;47.638;18.966;2023-02-28T12:05:22;6.40;;;2.90;;
71253;SDS011;59019;47.638;18.966;2023-02-28T12:19:48;6.35;;;2.78;;
71253;SDS011;59019;47.638;18.966;2023-02-28T12:27:38;7.03;;;3.50;;
71253;SDS011;59019;47.638;18.966;2023-02-28T12:30:25;6.50;;;3.50;;
71253;SDS011;59019;47.638;18.966;2023-02-28T12:33:07;7.32;;;3.58;;
71253;SDS011;59019;47.638;18.966;2023-02-28T12:35:49;6.50;;;3.38;;
71253;SDS011;59019;47.638;18.966;2023-02-28T12:44:12;7.38;;;3.50;;
71253;SDS011;59019;47.638;18.966;2023-02-28T12:46:42;7.97;;;3.40;;
71253;SDS011;59019;47.638;18.966;2023-02-28T12:49:21;7.07;;;2.88;;
71253;SDS011;59019;47.638;18.966;2023-02-28T12:51:52;7.57;;;3.27;;
71253;SDS011;59019;47.638;18.966;2023-02-28T12:56:54;7.50;;;3.27;;
71253;SDS011;59019;47.638;18.966;2023-02-28T12:59:48;8.95;;;3.47;;
71253;SDS011;59019;47.638;18.966;2023-02-28T13:02:31;9.20;;;3.40;;
71253;SDS011;59019;47.638;18.966;2023-02-28T13:10:43;7.80;;;3.63;;
71253;SDS011;59019;47.638;18.966;2023-02-28T13:13:14;7.70;;;3.30;;
71253;SDS011;59019;47.638;18.966;2023-02-28T13:15:49;7.18;;;3.50;;
71253;SDS011;59019;47.638;18.966;2023-02-28T13:18:33;8.50;;;3.83;;
71253;SDS011;59019;47.638;18.966;2023-02-28T13:21:05;7.13;;;3.35;;
71253;SDS011;59019;47.638;18.966;2023-02-28T13:23:40;8.25;;;3.65;;
71253;SDS011;59019;47.638;18.966;2023-02-28T13:39:50;8.23;;;3.33;;
71253;SDS011;59019;47.638;18.966;2023-02-28T13:42:32;8.90;;;3.78;;
71253;SDS011;59019;47.638;18.966;2023-02-28T13:50:22;8.60;;;3.72;;
71253;SDS011;59019;47.638;18.966;2023-02-28T13:52:51;7.80;;;3.43;;
71253;SDS011;59019;47.638;18.966;2023-02-28T14:06:16;8.27;;;3.43;;
71253;SDS011;59019;47.638;18.966;2023-02-28T14:09:35;8.73;;;4.18;;
71253;SDS011;59019;47.638;18.966;2023-02-28T14:11:44;20.27;;;8.95;;
71253;SDS011;59019;47.638;18.966;2023-02-28T14:14:53;13.77;;;6.03;;
71253;SDS011;59019;47.638;18.966;2023-02-28T14:17:03;12.65;;;6.20;;
71253;SDS011;59019;47.638;18.966;2023-02-28T14:19:35;16.10;;;7.43;;
71253;SDS011;59019;47.638;18.966;2023-02-28T14:27:37;11.55;;;6.07;;
71253;SDS011;59019;47.638;18.966;2023-02-28T14:33:16;8.70;;;4.07;;
71253;SDS011;59019;47.638;18.966;2023-02-28T14:38:59;12.60;;;4.38;;
71253;SDS011;59019;47.638;18.966;2023-02-28T14:44:13;9.70;;;4.13;;
71253;SDS011;59019;47.638;18.966;2023-02-28T14:46:53;11.30;;;3.93;;
71253;SDS011;59019;47.638;18.966;2023-02-28T14:49:21;8.60;;;3.60;;
71253;SDS011;59019;47.638;18.966;2023-02-28T14:54:59;8.20;;;3.38;;
71253;SDS011;59019;47.638;18.966;2023-02-28T14:57:31;9.32;;;3.70;;
71253;SDS011;59019;47.638;18.966;2023-02-28T15:02:35;10.80;;;4.40;;
71253;SDS011;59019;47.638;18.966;2023-02-28T15:07:46;10.25;;;3.95;;
71253;SDS011;59019;47.638;18.966;2023-02-28T15:12:41;8.93;;;4.10;;
71253;SDS011;59019;47.638;18.966;2023-02-28T15:15:17;10.57;;;3.83;;
71253;SDS011;59019;47.638;18.966;2023-02-28T15:17:49;10.20;;;4.38;;
71253;SDS011;59019;47.638;18.966;2023-02-28T15:20:17;9.65;;;4.00;;
71253;SDS011;59019;47.638;18.966;2023-02-28T15:22:43;14.55;;;5.20;;
71253;SDS011;59019;47.638;18.966;2023-02-28T15:25:13;12.27;;;4.90;;
71253;SDS011;59019;47.638;18.966;2023-02-28T15:27:44;16.33;;;5.53;;
71253;SDS011;59019;47.638;18.966;2023-02-28T15:30:17;13.23;;;5.25;;
71253;SDS011;59019;47.638;18.966;2023-02-28T15:33:01;8.90;;;4.03;;
71253;SDS011;59019;47.638;18.966;2023-02-28T15:35:47;7.97;;;3.47;;
71253;SDS011;59019;47.638;18.966;2023-02-28T15:38:14;7.30;;;3.40;;
71253;SDS011;59019;47.638;18.966;2023-02-28T15:40:41;14.73;;;5.03;;
71253;SDS011;59019;47.638;18.966;2023-02-28T15:43:18;11.18;;;4.00;;
71253;SDS011;59019;47.638;18.966;2023-02-28T15:46:01;13.55;;;5.30;;
71253;SDS011;59019;47.638;18.966;2023-02-28T15:50:56;12.73;;;4.20;;
71253;SDS011;59019;47.638;18.966;2023-02-28T15:53:28;9.20;;;4.00;;
71253;SDS011;59019;47.638;18.966;2023-02-28T15:56:01;9.85;;;3.78;;
71253;SDS011;59019;47.638;18.966;2023-02-28T15:58:29;9.27;;;3.95;;
71253;SDS011;59019;47.638;18.966;2023-02-28T16:01:05;10.17;;;3.80;;
71253;SDS011;59019;47.638;18.966;2023-02-28T16:03:44;9.82;;;4.00;;
71253;SDS011;59019;47.638;18.966;2023-02-28T16:06:33;9.80;;;4.45;;
71253;SDS011;59019;47.638;18.966;2023-02-28T16:09:11;9.40;;;3.92;;
71253;SDS011;59019;47.638;18.966;2023-02-28T16:11:48;10.57;;;3.92;;
71253;SDS011;59019;47.638;18.966;2023-02-28T16:14:17;12.03;;;4.47;;
71253;SDS011;59019;47.638;18.966;2023-02-28T16:16:48;10.60;;;3.97;;
71253;SDS011;59019;47.638;18.966;2023-02-28T16:19:16;9.80;;;4.50;;
71253;SDS011;59019;47.638;18.966;2023-02-28T16:21:43;9.40;;;4.07;;
71253;SDS011;59019;47.638;18.966;2023-02-28T16:24:09;8.07;;;3.50;;
71253;SDS011;59019;47.638;18.966;2023-02-28T16:26:34;11.45;;;4.50;;
71253;SDS011;59019;47.638;18.966;2023-02-28T16:29:02;8.40;;;3.77;;
71253;SDS011;59019;47.638;18.966;2023-02-28T16:31:28;8.48;;;3.80;;
71253;SDS011;59019;47.638;18.966;2023-02-28T16:33:54;11.93;;;4.00;;
71253;SDS011;59019;47.638;18.966;2023-02-28T16:36:21;10.93;;;4.23;;
71253;SDS011;59019;47.638;18.966;2023-02-28T16:38:50;10.10;;;4.32;;
71253;SDS011;59019;47.638;18.966;2023-02-28T16:41:19;8.30;;;3.65;;
71253;SDS011;59019;47.638;18.966;2023-02-28T16:43:47;11.20;;;3.93;;
71253;SDS011;59019;47.638;18.966;2023-02-28T16:46:15;8.98;;;3.85;;
71253;SDS011;59019;47.638;18.966;2023-02-28T16:48:42;9.02;;;3.42;;
71253;SDS011;59019;47.638;18.966;2023-02-28T16:51:11;7.35;;;3.67;;
71253;SDS011;59019;47.638;18.966;2023-02-28T16:53:38;10.68;;;4.20;;
71253;SDS011;59019;47.638;18.966;2023-02-28T16:56:04;10.67;;;4.33;;
71253;SDS011;59019;47.638;18.966;2023-02-28T16:58:32;9.63;;;4.35;;
71253;SDS011;59019;47.638;18.966;2023-02-28T17:01:00;14.25;;;5.90;;
71253;SDS011;59019;47.638;18.966;2023-02-28T17:03:27;15.23;;;5.50;;
71253;SDS011;59019;47.638;18.966;2023-02-28T17:05:53;19.42;;;7.65;;
71253;SDS011;59019;47.638;18.966;2023-02-28T17:08:19;18.33;;;6.72;;
71253;SDS011;59019;47.638;18.966;2023-02-28T17:10:45;14.53;;;6.60;;
71253;SDS011;59019;47.638;18.966;2023-02-28T17:13:10;16.92;;;7.35;;
71253;SDS011;59019;47.638;18.966;2023-02-28T17:15:36;12.63;;;5.53;;
71253;SDS011;59019;47.638;18.966;2023-02-28T17:18:03;11.15;;;5.15;;
71253;SDS011;59019;47.638;18.966;2023-02-28T17:20:29;14.55;;;5.20;;
71253;SDS011;59019;47.638;18.966;2023-02-28T17:22:55;12.38;;;5.50;;
71253;SDS011;59019;47.638;18.966;2023-02-28T17:25:21;9.90;;;4.68;;
71253;SDS011;59019;47.638;18.966;2023-02-28T17:27:47;12.10;;;5.47;;
71253;SDS011;59019;47.638;18.966;2023-02-28T17:30:18;13.32;;;5.40;;
71253;SDS011;59019;47.638;18.966;2023-02-28T17:32:45;11.98;;;4.82;;
71253;SDS011;59019;47.638;18.966;2023-02-28T17:35:11;11.47;;;5.17;;
71253;SDS011;59019;47.638;18.966;2023-02-28T17:37:37;12.65;;;5.72;;